Time;durP1;ratioP1;P1;durP2;ratioP2;P2;SDS_P1;SDS_P2;PMS_P1;PMS_P2;Temp;Humidity;BMP_temperature;BMP_pressure;BME280_temperature;BME280_humidity;BME280_pressure;Samples;Min_cycle;Max_cycle;Signal;HPM_P1;HPM_P2
2021/06/08 00:00:21;;;;;;;8.77;6.10;;;;;;;;;;4984401;28;20077;-65
2021/06/08 00:02:47;;;;;;;9.70;6.80;;;;;;;;;;4986945;28;20218;-66
2021/06/08 00:05:13;;;;;;;11.73;7.03;;;;;;;;;;4989957;28;20034;-65
2021/06/08 00:07:39;;;;;;;11.60;7.72;;;;;;;;;;4983521;28;20026;-66
2021/06/08 00:10:06;;;;;;;10.25;7.80;;;;;;;;;;4989580;28;20091;-65
2021/06/08 00:12:32;;;;;;;10.65;7.10;;;;;;;;;;4988556;28;20041;-65
2021/06/08 00:14:58;;;;;;;13.52;8.13;;;;;;;;;;4988311;28;20540;-65
2021/06/08 00:17:24;;;;;;;14.80;8.80;;;;;;;;;;4988983;28;20019;-66
2021/06/08 00:19:50;;;;;;;18.05;7.95;;;;;;;;;;4987595;28;20049;-66
2021/06/08 00:22:16;;;;;;;16.67;8.77;;;;;;;;;;4989442;28;20120;-65
2021/06/08 00:24:42;;;;;;;15.45;8.50;;;;;;;;;;4986523;28;20042;-65
2021/06/08 00:27:08;;;;;;;16.33;8.82;;;;;;;;;;4986704;28;20031;-65
2021/06/08 00:29:34;;;;;;;13.98;9.82;;;;;;;;;;4989283;28;20029;-66
2021/06/08 00:32:00;;;;;;;20.90;10.45;;;;;;;;;;4988669;28;20076;-66
2021/06/08 00:34:26;;;;;;;15.52;9.40;;;;;;;;;;4989812;28;20524;-66
2021/06/08 00:36:52;;;;;;;15.77;9.82;;;;;;;;;;4987598;28;20027;-65
2021/06/08 00:39:18;;;;;;;13.73;9.35;;;;;;;;;;4985026;28;20027;-66
2021/06/08 00:41:45;;;;;;;19.45;11.48;;;;;;;;;;4987399;28;20030;-65
2021/06/08 00:44:13;;;;;;;14.98;9.68;;;;;;;;;;4986285;28;20042;-66
2021/06/08 00:46:40;;;;;;;19.40;9.77;;;;;;;;;;4988230;28;20482;-65
2021/06/08 00:49:06;;;;;;;17.00;8.90;;;;;;;;;;4987450;28;20038;-65
2021/06/08 00:51:33;;;;;;;14.35;9.23;;;;;;;;;;4989624;28;20055;-65
2021/06/08 00:54:05;;;;;;;12.98;8.98;;;;;;;;;;4988785;28;20744;-66
2021/06/08 00:56:31;;;;;;;14.77;9.18;;;;;;;;;;4987687;28;20398;-65
2021/06/08 00:58:57;;;;;;;15.85;10.18;;;;;;;;;;4989025;28;20109;-66
2021/06/08 01:01:23;;;;;;;14.98;9.60;;;;;;;;;;4988799;28;20034;-66
2021/06/08 01:03:49;;;;;;;16.25;11.05;;;;;;;;;;4988240;28;20048;-66
2021/06/08 01:06:15;;;;;;;16.40;9.15;;;;;;;;;;4988109;28;20121;-66
2021/06/08 01:08:41;;;;;;;13.18;9.07;;;;;;;;;;4988155;28;20038;-65
2021/06/08 01:11:07;;;;;;;15.25;9.60;;;;;;;;;;4988583;28;20027;-65
2021/06/08 01:13:33;;;;;;;14.88;8.88;;;;;;;;;;4988981;28;20052;-66
2021/06/08 01:16:00;;;;;;;18.73;10.77;;;;;;;;;;4988687;28;20042;-66
2021/06/08 01:18:26;;;;;;;15.32;10.70;;;;;;;;;;4987851;28;20026;-65
2021/06/08 01:21:01;;;;;;;17.67;11.38;;;;;;;;;;4987973;28;20038;-66
2021/06/08 01:23:27;;;;;;;16.70;11.57;;;;;;;;;;4987300;28;20026;-66
2021/06/08 01:25:55;;;;;;;16.70;10.90;;;;;;;;;;4988142;28;20038;-65
2021/06/08 01:28:21;;;;;;;17.95;10.65;;;;;;;;;;4987930;28;20035;-65
2021/06/08 01:30:48;;;;;;;17.13;12.45;;;;;;;;;;4988676;28;20095;-65
2021/06/08 01:33:15;;;;;;;15.30;10.98;;;;;;;;;;4984345;28;20039;-65
2021/06/08 01:35:41;;;;;;;14.57;10.70;;;;;;;;;;4988106;28;20038;-66
2021/06/08 01:38:08;;;;;;;16.83;11.80;;;;;;;;;;4987491;28;20046;-65
2021/06/08 01:40:35;;;;;;;17.15;11.05;;;;;;;;;;4989512;28;20018;-66
2021/06/08 01:43:01;;;;;;;18.30;11.77;;;;;;;;;;4986202;28;20023;-66
2021/06/08 01:45:27;;;;;;;16.55;11.43;;;;;;;;;;4988575;28;20409;-66
2021/06/08 01:47:53;;;;;;;17.55;12.57;;;;;;;;;;4986970;28;20027;-66
2021/06/08 01:50:19;;;;;;;23.38;14.27;;;;;;;;;;4988706;28;20030;-65
2021/06/08 01:52:50;;;;;;;22.73;13.60;;;;;;;;;;4987839;28;20849;-65
2021/06/08 01:55:18;;;;;;;21.33;12.70;;;;;;;;;;4986451;28;20068;-65
2021/06/08 01:57:51;;;;;;;18.15;12.55;;;;;;;;;;4985627;28;20106;-65
2021/06/08 02:00:18;;;;;;;18.80;12.93;;;;;;;;;;4987996;28;20046;-66
2021/06/08 02:02:51;;;;;;;17.98;13.20;;;;;;;;;;4986118;28;20022;-66
2021/06/08 02:05:36;;;;;;;19.05;13.40;;;;;;;;;;4986778;28;20042;-65
2021/06/08 02:08:02;;;;;;;15.60;11.27;;;;;;;;;;4986462;28;20643;-65
2021/06/08 02:10:41;;;;;;;16.70;10.95;;;;;;;;;;4988166;28;20026;-65
2021/06/08 02:13:16;;;;;;;15.30;10.48;;;;;;;;;;4989283;28;20497;-65
2021/06/08 02:15:49;;;;;;;18.88;11.50;;;;;;;;;;4985894;28;20034;-65
2021/06/08 02:18:17;;;;;;;18.65;11.57;;;;;;;;;;4985972;28;20030;-65
2021/06/08 02:20:43;;;;;;;20.92;12.73;;;;;;;;;;4987412;28;20109;-65
2021/06/08 02:23:11;;;;;;;20.50;13.25;;;;;;;;;;4986667;28;20140;-65
2021/06/08 02:25:38;;;;;;;18.55;12.32;;;;;;;;;;4986906;28;20030;-66
2021/06/08 02:28:07;;;;;;;17.20;12.55;;;;;;;;;;4986373;28;20042;-65
2021/06/08 02:30:33;;;;;;;19.45;13.15;;;;;;;;;;4984819;28;20037;-65
2021/06/08 02:33:00;;;;;;;19.63;12.82;;;;;;;;;;4982617;28;20082;-66
2021/06/08 02:35:27;;;;;;;20.17;13.38;;;;;;;;;;4987850;28;20037;-65
2021/06/08 02:37:53;;;;;;;17.90;12.18;;;;;;;;;;4986710;28;20042;-66
2021/06/08 02:40:20;;;;;;;17.48;12.55;;;;;;;;;;4987068;28;20030;-65
2021/06/08 02:42:47;;;;;;;15.40;11.60;;;;;;;;;;4990856;28;20040;-65
2021/06/08 02:45:13;;;;;;;17.52;12.73;;;;;;;;;;4987718;28;20076;-66
2021/06/08 02:47:41;;;;;;;16.55;11.98;;;;;;;;;;4986301;28;20532;-66
2021/06/08 02:50:08;;;;;;;19.05;12.07;;;;;;;;;;4986356;28;20050;-65
2021/06/08 02:52:35;;;;;;;16.45;12.13;;;;;;;;;;4985894;28;20037;-66
2021/06/08 02:55:02;;;;;;;17.92;13.15;;;;;;;;;;4994689;28;20038;-65
2021/06/08 02:57:28;;;;;;;18.63;12.60;;;;;;;;;;4986168;28;20092;-65
2021/06/08 03:00:01;;;;;;;19.40;12.63;;;;;;;;;;4986257;28;20026;-65
2021/06/08 03:02:28;;;;;;;19.77;14.02;;;;;;;;;;4985120;28;20485;-66
2021/06/08 03:05:02;;;;;;;21.15;14.45;;;;;;;;;;4987716;28;20035;-66
2021/06/08 03:07:28;;;;;;;19.90;13.88;;;;;;;;;;4985952;28;20493;-66
2021/06/08 03:09:58;;;;;;;21.80;14.82;;;;;;;;;;4985802;28;20092;-66
2021/06/08 03:12:28;;;;;;;20.67;15.18;;;;;;;;;;4986985;28;20042;-66
2021/06/08 03:14:54;;;;;;;20.98;15.07;;;;;;;;;;4987079;28;20038;-65
2021/06/08 03:17:23;;;;;;;24.30;14.82;;;;;;;;;;4985616;28;20501;-66
2021/06/08 03:19:49;;;;;;;22.50;15.25;;;;;;;;;;4987208;28;20038;-65
2021/06/08 03:22:18;;;;;;;25.73;15.65;;;;;;;;;;4986454;28;20026;-66
2021/06/08 03:24:46;;;;;;;23.00;16.60;;;;;;;;;;4986133;28;20054;-65
2021/06/08 03:27:12;;;;;;;23.73;16.65;;;;;;;;;;4986363;28;20104;-65
2021/06/08 03:29:39;;;;;;;24.35;15.75;;;;;;;;;;4986950;28;20056;-65
2021/06/08 03:32:06;;;;;;;27.38;18.35;;;;;;;;;;4988445;28;20026;-66
2021/06/08 03:34:33;;;;;;;21.73;15.80;;;;;;;;;;4985914;28;20042;-65
2021/06/08 03:37:01;;;;;;;26.17;18.20;;;;;;;;;;4980953;28;20080;-66
2021/06/08 03:39:27;;;;;;;26.25;16.42;;;;;;;;;;4990150;28;20035;-66
2021/06/08 03:41:54;;;;;;;25.20;17.20;;;;;;;;;;4989076;28;20031;-65
2021/06/08 03:44:21;;;;;;;25.27;17.25;;;;;;;;;;4989852;28;20093;-66
2021/06/08 03:46:48;;;;;;;25.60;16.98;;;;;;;;;;4989147;28;20034;-65
2021/06/08 03:49:15;;;;;;;27.23;18.15;;;;;;;;;;4989396;28;20026;-66
2021/06/08 03:51:42;;;;;;;28.52;18.05;;;;;;;;;;4987246;28;20034;-66
2021/06/08 03:54:10;;;;;;;27.75;18.73;;;;;;;;;;4989190;28;20037;-66
2021/06/08 03:56:37;;;;;;;31.17;19.55;;;;;;;;;;4989250;28;20026;-66
2021/06/08 03:59:04;;;;;;;31.67;19.30;;;;;;;;;;4989682;28;20501;-66
2021/06/08 04:01:32;;;;;;;28.25;19.27;;;;;;;;;;4987878;28;20026;-66
2021/06/08 04:03:59;;;;;;;28.52;18.58;;;;;;;;;;4988027;28;20027;-66
2021/06/08 04:06:25;;;;;;;32.17;19.50;;;;;;;;;;4989266;28;20045;-65
2021/06/08 04:08:51;;;;;;;29.48;20.10;;;;;;;;;;4986055;28;20505;-66
2021/06/08 04:11:18;;;;;;;31.33;20.23;;;;;;;;;;4986860;28;20501;-66
2021/06/08 04:13:44;;;;;;;33.85;21.05;;;;;;;;;;4988486;28;20030;-65
2021/06/08 04:16:11;;;;;;;31.15;20.20;;;;;;;;;;4988701;28;20535;-66
2021/06/08 04:18:39;;;;;;;30.88;21.52;;;;;;;;;;4987963;28;20031;-66
2021/06/08 04:21:05;;;;;;;33.20;20.80;;;;;;;;;;4989591;28;20029;-67
2021/06/08 04:23:31;;;;;;;34.97;20.40;;;;;;;;;;4989500;28;20088;-65
2021/06/08 04:25:58;;;;;;;31.02;21.27;;;;;;;;;;4987666;28;20019;-66
2021/06/08 04:28:25;;;;;;;31.83;20.75;;;;;;;;;;4987872;28;20054;-66
2021/06/08 04:30:52;;;;;;;32.85;20.40;;;;;;;;;;4989107;28;20509;-66
2021/06/08 04:33:28;;;;;;;30.73;21.50;;;;;;;;;;4987221;28;20556;-66
2021/06/08 04:35:54;;;;;;;33.55;20.42;;;;;;;;;;4988218;28;20041;-66
2021/06/08 04:38:21;;;;;;;29.50;19.15;;;;;;;;;;4985721;28;20061;-66
2021/06/08 04:40:48;;;;;;;31.65;20.35;;;;;;;;;;4986582;28;20095;-66
2021/06/08 04:43:15;;;;;;;32.42;20.42;;;;;;;;;;4984910;28;20084;-66
2021/06/08 04:45:41;;;;;;;36.83;22.23;;;;;;;;;;4987484;28;20058;-66
2021/06/08 04:48:07;;;;;;;35.33;22.38;;;;;;;;;;4987910;28;20026;-66
2021/06/08 04:50:33;;;;;;;32.15;21.95;;;;;;;;;;4987287;28;20045;-66
2021/06/08 04:53:06;;;;;;;39.47;23.13;;;;;;;;;;4988169;28;20508;-66
2021/06/08 04:55:32;;;;;;;40.40;24.17;;;;;;;;;;4987736;28;20405;-66
2021/06/08 04:57:58;;;;;;;39.63;23.67;;;;;;;;;;4987572;28;20023;-66
2021/06/08 05:00:31;;;;;;;45.67;27.50;;;;;;;;;;4989146;28;20050;-66
2021/06/08 05:03:00;;;;;;;40.90;26.20;;;;;;;;;;4986838;28;20053;-66
2021/06/08 05:05:27;;;;;;;41.50;25.10;;;;;;;;;;4989076;28;20072;-66
2021/06/08 05:07:56;;;;;;;42.40;26.33;;;;;;;;;;4987940;28;20030;-66
2021/06/08 05:10:24;;;;;;;39.08;24.77;;;;;;;;;;4986589;28;20058;-66
2021/06/08 05:12:50;;;;;;;42.05;26.30;;;;;;;;;;4990553;28;20086;-66
2021/06/08 05:15:18;;;;;;;49.60;29.63;;;;;;;;;;4984999;28;20034;-66
2021/06/08 05:17:45;;;;;;;43.40;26.63;;;;;;;;;;4980356;28;20041;-66
2021/06/08 05:20:11;;;;;;;43.65;27.38;;;;;;;;;;4991792;28;20040;-66
2021/06/08 05:22:38;;;;;;;53.20;33.03;;;;;;;;;;4981570;28;20027;-66
2021/06/08 05:25:04;;;;;;;60.72;40.00;;;;;;;;;;4983811;28;20109;-67
2021/06/08 05:27:30;;;;;;;59.65;40.00;;;;;;;;;;4981147;28;20033;-66
2021/06/08 05:29:57;;;;;;;69.25;42.00;;;;;;;;;;4982194;28;20035;-66
2021/06/08 05:32:23;;;;;;;65.75;43.25;;;;;;;;;;4984852;28;20114;-66
2021/06/08 05:34:49;;;;;;;62.05;41.03;;;;;;;;;;4985275;28;20034;-67
2021/06/08 05:37:16;;;;;;;61.03;39.42;;;;;;;;;;4977719;28;20092;-66
2021/06/08 05:39:42;;;;;;;64.95;39.67;;;;;;;;;;4990231;28;20493;-66
2021/06/08 05:42:10;;;;;;;57.83;39.45;;;;;;;;;;4988190;28;20027;-66
2021/06/08 05:44:36;;;;;;;64.80;40.60;;;;;;;;;;4982623;28;20280;-66
2021/06/08 05:47:06;;;;;;;63.35;39.80;;;;;;;;;;4985510;28;20489;-66
2021/06/08 05:49:33;;;;;;;65.93;40.45;;;;;;;;;;4999996;28;20220;-66
2021/06/08 05:51:59;;;;;;;59.65;38.30;;;;;;;;;;4987319;28;20050;-66
2021/06/08 05:54:29;;;;;;;65.57;40.35;;;;;;;;;;4992926;28;20080;-66
2021/06/08 05:56:56;;;;;;;59.35;38.47;;;;;;;;;;4986686;28;20226;-66
2021/06/08 05:59:22;;;;;;;58.20;37.58;;;;;;;;;;4980181;28;20045;-66
2021/06/08 06:01:48;;;;;;;59.10;36.83;;;;;;;;;;4976976;28;20565;-66
2021/06/08 06:04:16;;;;;;;55.42;36.03;;;;;;;;;;4984585;28;20076;-66
2021/06/08 06:06:42;;;;;;;53.00;34.05;;;;;;;;;;4980039;28;20026;-66
2021/06/08 06:09:25;;;;;;;51.38;34.90;;;;;;;;;;5001612;28;20050;-66
2021/06/08 06:11:52;;;;;;;52.30;34.63;;;;;;;;;;4985900;28;20029;-66
2021/06/08 06:14:25;;;;;;;52.28;33.63;;;;;;;;;;4995807;28;20034;-66
2021/06/08 06:16:53;;;;;;;49.70;33.05;;;;;;;;;;4995289;28;20242;-66
2021/06/08 06:19:29;;;;;;;48.20;32.80;;;;;;;;;;4989596;28;20026;-66
2021/06/08 06:21:56;;;;;;;52.83;32.92;;;;;;;;;;4979857;28;20031;-67
2021/06/08 06:24:22;;;;;;;47.20;32.28;;;;;;;;;;4984062;28;20033;-66
2021/06/08 06:26:48;;;;;;;55.38;32.78;;;;;;;;;;4976484;28;20034;-66
2021/06/08 06:29:14;;;;;;;43.40;29.85;;;;;;;;;;4979118;28;20026;-68
2021/06/08 06:31:48;;;;;;;46.80;31.35;;;;;;;;;;4981516;28;20064;-66
2021/06/08 06:34:15;;;;;;;47.72;31.52;;;;;;;;;;4971780;28;20019;-67
2021/06/08 06:36:43;;;;;;;48.85;31.73;;;;;;;;;;4971021;28;20026;-66
2021/06/08 06:39:16;;;;;;;44.25;28.63;;;;;;;;;;4983936;28;20022;-66
2021/06/08 06:41:42;;;;;;;43.03;26.98;;;;;;;;;;4981135;28;20679;-66
2021/06/08 06:44:09;;;;;;;45.17;30.27;;;;;;;;;;4980048;28;20060;-66
2021/06/08 06:46:35;;;;;;;48.35;30.98;;;;;;;;;;4976153;28;20029;-66
2021/06/08 06:49:01;;;;;;;42.88;30.08;;;;;;;;;;4984329;28;20467;-66
2021/06/08 06:51:29;;;;;;;46.28;28.98;;;;;;;;;;4979454;28;20026;-66
2021/06/08 06:53:55;;;;;;;45.13;28.15;;;;;;;;;;4980863;28;21396;-66
2021/06/08 06:56:22;;;;;;;43.05;28.55;;;;;;;;;;4979963;28;20030;-67
2021/06/08 06:58:48;;;;;;;42.97;27.70;;;;;;;;;;4977728;28;20025;-66
2021/06/08 07:01:15;;;;;;;39.60;28.40;;;;;;;;;;4980434;28;20155;-66
2021/06/08 07:03:41;;;;;;;43.42;28.05;;;;;;;;;;4980967;28;20164;-66
2021/06/08 07:06:08;;;;;;;40.10;26.80;;;;;;;;;;4980277;28;20117;-66
2021/06/08 07:08:34;;;;;;;40.42;28.08;;;;;;;;;;4975496;28;21326;-66
2021/06/08 07:11:01;;;;;;;41.42;26.58;;;;;;;;;;4986128;28;20091;-66
2021/06/08 07:13:27;;;;;;;41.60;26.88;;;;;;;;;;4988815;28;20042;-66
2021/06/08 07:15:53;;;;;;;39.40;26.13;;;;;;;;;;4984370;28;20401;-66
2021/06/08 07:18:20;;;;;;;42.13;28.13;;;;;;;;;;4977923;28;20023;-66
2021/06/08 07:20:46;;;;;;;39.17;25.90;;;;;;;;;;4986535;28;20034;-66
2021/06/08 07:23:16;;;;;;;40.13;26.58;;;;;;;;;;4985495;28;20097;-66
2021/06/08 07:25:43;;;;;;;38.67;26.00;;;;;;;;;;4983999;28;20038;-66
2021/06/08 07:28:10;;;;;;;39.72;25.92;;;;;;;;;;4981269;28;20023;-66
2021/06/08 07:30:38;;;;;;;38.83;26.83;;;;;;;;;;4984643;28;20057;-67
2021/06/08 07:33:22;;;;;;;36.28;24.08;;;;;;;;;;4998690;28;20163;-66
2021/06/08 07:35:54;;;;;;;37.95;25.00;;;;;;;;;;4985271;28;20035;-66
2021/06/08 07:38:32;;;;;;;34.00;24.85;;;;;;;;;;4985714;28;20034;-66
2021/06/08 07:41:01;;;;;;;39.58;26.88;;;;;;;;;;4981409;28;20022;-66
2021/06/08 07:43:31;;;;;;;36.42;24.42;;;;;;;;;;5017629;28;20023;-66
2021/06/08 07:46:00;;;;;;;42.40;25.77;;;;;;;;;;4990815;28;20026;-66
2021/06/08 07:48:27;;;;;;;40.08;24.83;;;;;;;;;;4985386;28;20030;-66
2021/06/08 07:50:55;;;;;;;36.63;25.63;;;;;;;;;;4990346;28;20093;-66
2021/06/08 07:53:22;;;;;;;37.55;24.88;;;;;;;;;;4989456;28;20034;-65
2021/06/08 07:55:49;;;;;;;37.80;25.27;;;;;;;;;;4981500;28;20025;-66
2021/06/08 07:58:22;;;;;;;38.83;24.15;;;;;;;;;;4987684;28;20061;-65
2021/06/08 08:00:49;;;;;;;32.10;24.23;;;;;;;;;;4989779;28;20066;-65
2021/06/08 08:03:28;;;;;;;33.75;23.27;;;;;;;;;;4989015;28;20087;-66
2021/06/08 08:05:59;;;;;;;36.45;23.88;;;;;;;;;;5020140;28;20034;-66
2021/06/08 08:08:25;;;;;;;31.98;23.92;;;;;;;;;;5012934;28;20444;-66
2021/06/08 08:10:51;;;;;;;35.85;23.98;;;;;;;;;;4989449;28;20113;-66
2021/06/08 08:13:25;;;;;;;35.78;25.50;;;;;;;;;;5005297;28;20030;-65
2021/06/08 08:15:52;;;;;;;34.90;25.98;;;;;;;;;;4990699;28;20080;-65
2021/06/08 08:18:19;;;;;;;34.95;24.25;;;;;;;;;;5006081;28;20516;-65
2021/06/08 08:20:46;;;;;;;42.92;30.50;;;;;;;;;;4992495;28;20163;-66
2021/06/08 08:23:12;;;;;;;43.67;26.67;;;;;;;;;;4978717;28;20109;-65
2021/06/08 08:25:39;;;;;;;45.42;31.35;;;;;;;;;;4985415;28;20496;-65
2021/06/08 08:28:05;;;;;;;45.97;31.60;;;;;;;;;;4985491;28;20251;-66
2021/06/08 08:30:32;;;;;;;46.55;30.77;;;;;;;;;;4991555;28;20057;-66
2021/06/08 08:32:58;;;;;;;50.78;33.33;;;;;;;;;;4987075;28;20033;-65
2021/06/08 08:35:25;;;;;;;50.40;33.92;;;;;;;;;;4990363;28;20035;-66
2021/06/08 08:37:52;;;;;;;51.50;34.75;;;;;;;;;;4987578;28;20022;-65
2021/06/08 08:40:18;;;;;;;54.88;37.22;;;;;;;;;;4988043;28;20096;-65
2021/06/08 08:42:45;;;;;;;53.17;36.75;;;;;;;;;;4982180;28;20037;-66
2021/06/08 08:45:12;;;;;;;50.72;35.38;;;;;;;;;;4979910;28;20022;-65
2021/06/08 08:47:39;;;;;;;53.67;36.70;;;;;;;;;;4971859;28;20035;-65
2021/06/08 08:50:06;;;;;;;51.85;37.17;;;;;;;;;;4987157;28;20029;-66
2021/06/08 08:52:33;;;;;;;52.33;37.38;;;;;;;;;;4985661;28;20271;-65
2021/06/08 08:55:00;;;;;;;58.92;40.15;;;;;;;;;;5002097;28;20038;-65
2021/06/08 08:57:27;;;;;;;61.63;39.95;;;;;;;;;;4980551;28;20030;-65
2021/06/08 08:59:58;;;;;;;58.75;37.83;;;;;;;;;;4987082;28;20023;-66
2021/06/08 09:02:25;;;;;;;62.70;41.40;;;;;;;;;;5061195;28;20094;-65
2021/06/08 09:04:51;;;;;;;56.20;40.25;;;;;;;;;;4993718;28;20033;-66
2021/06/08 09:07:17;;;;;;;57.00;40.13;;;;;;;;;;4998035;28;20122;-65
2021/06/08 09:09:43;;;;;;;61.05;38.80;;;;;;;;;;4990148;28;20159;-66
2021/06/08 09:12:10;;;;;;;53.53;36.30;;;;;;;;;;4989502;28;20026;-66
2021/06/08 09:14:36;;;;;;;54.80;37.13;;;;;;;;;;5078554;28;20452;-65
2021/06/08 09:17:03;;;;;;;55.45;36.72;;;;;;;;;;4991120;28;20018;-65
2021/06/08 09:19:30;;;;;;;55.42;39.17;;;;;;;;;;4987111;28;20030;-65
2021/06/08 09:21:57;;;;;;;55.88;36.33;;;;;;;;;;4984925;28;20113;-65
2021/06/08 09:24:24;;;;;;;52.28;38.35;;;;;;;;;;4982939;28;20071;-65
2021/06/08 09:27:01;;;;;;;51.95;36.08;;;;;;;;;;4986464;28;20027;-65
2021/06/08 09:29:34;;;;;;;50.92;37.65;;;;;;;;;;5041210;28;20023;-65
2021/06/08 09:32:18;;;;;;;50.53;37.38;;;;;;;;;;4989630;28;20496;-66
2021/06/08 09:34:54;;;;;;;49.35;33.45;;;;;;;;;;4974484;28;20032;-65
2021/06/08 09:37:49;;;;;;;52.92;36.30;;;;;;;;;;4986798;28;20050;-65
2021/06/08 09:40:15;;;;;;;45.47;33.03;;;;;;;;;;4975179;28;20034;-65
2021/06/08 09:42:41;;;;;;;45.60;33.00;;;;;;;;;;4987823;28;20035;-65
2021/06/08 09:45:18;;;;;;;45.92;31.17;;;;;;;;;;4988945;28;20037;-65
2021/06/08 09:47:44;;;;;;;46.10;32.25;;;;;;;;;;4980687;28;20030;-66
2021/06/08 09:50:29;;;;;;;45.25;31.70;;;;;;;;;;4987680;28;20048;-65
2021/06/08 09:53:14;;;;;;;49.30;32.25;;;;;;;;;;4984348;28;20034;-65
2021/06/08 09:55:50;;;;;;;45.75;32.13;;;;;;;;;;4986906;28;20105;-65
2021/06/08 09:58:16;;;;;;;46.50;32.05;;;;;;;;;;4985930;28;20023;-66
2021/06/08 10:00:42;;;;;;;44.35;31.42;;;;;;;;;;4987110;28;20102;-65
2021/06/08 10:03:08;;;;;;;42.08;31.15;;;;;;;;;;5000533;28;20037;-66
2021/06/08 10:05:34;;;;;;;40.67;29.20;;;;;;;;;;5007448;28;20087;-65
2021/06/08 10:08:01;;;;;;;44.97;31.23;;;;;;;;;;4985070;28;20022;-66
2021/06/08 10:10:27;;;;;;;46.97;30.17;;;;;;;;;;4988264;28;20030;-66
2021/06/08 10:13:03;;;;;;;44.38;31.58;;;;;;;;;;5003432;28;20027;-65
2021/06/08 10:15:31;;;;;;;43.47;31.15;;;;;;;;;;4970469;28;20039;-66
2021/06/08 10:17:57;;;;;;;43.55;32.75;;;;;;;;;;4977382;28;20057;-66
2021/06/08 10:20:25;;;;;;;42.53;30.10;;;;;;;;;;4988994;28;20026;-66
2021/06/08 10:22:51;;;;;;;42.22;31.30;;;;;;;;;;4986760;28;20033;-65
2021/06/08 10:25:17;;;;;;;43.47;32.35;;;;;;;;;;4986810;28;20033;-66
2021/06/08 10:27:43;;;;;;;47.22;29.65;;;;;;;;;;4985875;28;20058;-65
2021/06/08 10:30:10;;;;;;;44.95;33.53;;;;;;;;;;4981516;28;20053;-65
2021/06/08 10:32:36;;;;;;;48.03;29.92;;;;;;;;;;4989908;28;20034;-66
2021/06/08 10:35:03;;;;;;;46.90;32.17;;;;;;;;;;4994588;28;20052;-66
2021/06/08 10:37:29;;;;;;;43.95;30.98;;;;;;;;;;4985983;28;20026;-65
2021/06/08 10:39:58;;;;;;;45.17;31.33;;;;;;;;;;4999301;28;20519;-64
2021/06/08 10:42:25;;;;;;;43.22;31.50;;;;;;;;;;4985246;28;20034;-65
2021/06/08 10:44:59;;;;;;;42.95;31.27;;;;;;;;;;4985187;28;20053;-66
2021/06/08 10:47:54;;;;;;;45.83;33.38;;;;;;;;;;4986299;28;20736;-66
2021/06/08 10:50:26;;;;;;;44.08;31.80;;;;;;;;;;4974042;28;20529;-66
2021/06/08 10:52:56;;;;;;;50.30;33.75;;;;;;;;;;4986291;28;20034;-66
2021/06/08 10:55:27;;;;;;;46.50;30.85;;;;;;;;;;4986225;28;20057;-66
2021/06/08 10:57:53;;;;;;;44.90;32.92;;;;;;;;;;4979604;28;20026;-65
2021/06/08 11:00:25;;;;;;;47.88;32.80;;;;;;;;;;4986573;28;20046;-64
2021/06/08 11:03:00;;;;;;;44.47;31.90;;;;;;;;;;4984167;28;20066;-65
2021/06/08 11:05:44;;;;;;;43.53;31.70;;;;;;;;;;4984290;28;20035;-65
2021/06/08 11:08:11;;;;;;;42.65;30.98;;;;;;;;;;4982084;28;20027;-65
2021/06/08 11:10:39;;;;;;;42.70;33.30;;;;;;;;;;4980099;28;20065;-65
2021/06/08 11:13:09;;;;;;;46.28;31.48;;;;;;;;;;5009258;28;20177;-65
2021/06/08 11:15:39;;;;;;;49.13;34.95;;;;;;;;;;5032910;28;20232;-66
2021/06/08 11:18:20;;;;;;;46.22;32.45;;;;;;;;;;4985347;28;20022;-66
2021/06/08 11:20:48;;;;;;;49.80;35.97;;;;;;;;;;4988473;28;20018;-67
2021/06/08 11:23:33;;;;;;;50.90;34.80;;;;;;;;;;4987754;28;20031;-66
2021/06/08 11:25:59;;;;;;;44.97;33.38;;;;;;;;;;4983581;28;20031;-66
2021/06/08 11:28:44;;;;;;;43.92;31.83;;;;;;;;;;5023844;28;20026;-65
2021/06/08 11:31:11;;;;;;;43.22;31.50;;;;;;;;;;4987985;28;20057;-66
2021/06/08 11:33:38;;;;;;;46.38;32.38;;;;;;;;;;4993536;28;20501;-66
2021/06/08 11:36:25;;;;;;;43.35;30.67;;;;;;;;;;4986794;28;20031;-66
2021/06/08 11:39:13;;;;;;;45.22;32.75;;;;;;;;;;4974318;28;21226;-65
2021/06/08 11:41:58;;;;;;;44.67;32.63;;;;;;;;;;4980569;28;20033;-66
2021/06/08 11:44:24;;;;;;;40.75;28.85;;;;;;;;;;4987636;28;20389;-65
2021/06/08 11:46:51;;;;;;;44.13;31.58;;;;;;;;;;5044562;28;20096;-65
2021/06/08 11:49:18;;;;;;;43.38;29.30;;;;;;;;;;4992075;28;20118;-66
2021/06/08 11:51:49;;;;;;;39.95;29.13;;;;;;;;;;4987495;28;20509;-66
2021/06/08 11:54:19;;;;;;;45.15;29.70;;;;;;;;;;5000360;28;20037;-65
2021/06/08 11:56:45;;;;;;;42.53;30.25;;;;;;;;;;4984880;28;20572;-66
2021/06/08 11:59:12;;;;;;;40.28;28.63;;;;;;;;;;5016701;28;20045;-65
2021/06/08 12:01:38;;;;;;;38.40;28.08;;;;;;;;;;4990952;28;20042;-66
2021/06/08 12:04:04;;;;;;;43.70;31.58;;;;;;;;;;4990012;28;20457;-65
2021/06/08 12:06:49;;;;;;;44.03;31.92;;;;;;;;;;4989121;28;20030;-65
2021/06/08 12:09:17;;;;;;;43.00;31.02;;;;;;;;;;4990949;28;20030;-66
2021/06/08 12:11:43;;;;;;;38.97;29.25;;;;;;;;;;4990363;28;20034;-65
2021/06/08 12:14:09;;;;;;;43.70;29.13;;;;;;;;;;5061693;28;20028;-66
2021/06/08 12:16:35;;;;;;;43.45;32.08;;;;;;;;;;5090835;28;20047;-66
2021/06/08 12:19:06;;;;;;;47.40;34.38;;;;;;;;;;4993617;28;20105;-65
2021/06/08 12:21:32;;;;;;;43.57;32.53;;;;;;;;;;4990849;28;20023;-65
2021/06/08 12:23:59;;;;;;;41.22;29.63;;;;;;;;;;4992323;28;20268;-65
2021/06/08 12:26:25;;;;;;;40.78;29.10;;;;;;;;;;4989092;28;20026;-65
2021/06/08 12:29:14;;;;;;;45.90;32.35;;;;;;;;;;4989733;28;20038;-66
2021/06/08 12:31:51;;;;;;;43.40;28.95;;;;;;;;;;5007745;28;20034;-65
2021/06/08 12:34:19;;;;;;;44.08;31.42;;;;;;;;;;4997390;28;20556;-66
2021/06/08 12:36:45;;;;;;;46.22;32.63;;;;;;;;;;4987774;28;20320;-66
2021/06/08 12:39:12;;;;;;;41.95;29.85;;;;;;;;;;4990559;28;20018;-66
2021/06/08 12:41:38;;;;;;;45.17;30.23;;;;;;;;;;4986817;28;20022;-66
2021/06/08 12:44:05;;;;;;;43.72;29.52;;;;;;;;;;4990438;28;20425;-66
2021/06/08 12:46:31;;;;;;;44.60;30.33;;;;;;;;;;4988193;28;20125;-65
2021/06/08 12:49:17;;;;;;;45.78;29.98;;;;;;;;;;4989415;28;20098;-66
2021/06/08 12:51:44;;;;;;;50.03;35.03;;;;;;;;;;4990521;28;20019;-66
2021/06/08 12:54:26;;;;;;;47.30;34.08;;;;;;;;;;4988353;28;20027;-67
2021/06/08 12:56:52;;;;;;;44.00;30.35;;;;;;;;;;4988037;28;20057;-65
2021/06/08 12:59:22;;;;;;;45.85;32.97;;;;;;;;;;4990327;28;20026;-66
2021/06/08 13:01:48;;;;;;;42.85;31.08;;;;;;;;;;4989994;28;20081;-66
2021/06/08 13:04:14;;;;;;;43.42;31.35;;;;;;;;;;4989436;28;20018;-66
2021/06/08 13:06:40;;;;;;;42.05;31.33;;;;;;;;;;4989226;28;20061;-66
2021/06/08 13:09:07;;;;;;;42.58;30.73;;;;;;;;;;4988485;28;20040;-66
2021/06/08 13:11:33;;;;;;;45.75;33.42;;;;;;;;;;4989535;28;20030;-66
2021/06/08 13:14:05;;;;;;;44.38;32.10;;;;;;;;;;4989042;28;20040;-66
2021/06/08 13:16:31;;;;;;;48.03;32.50;;;;;;;;;;4988766;28;20403;-66
2021/06/08 13:19:12;;;;;;;42.58;33.47;;;;;;;;;;4989000;28;20042;-66
2021/06/08 13:21:38;;;;;;;46.30;33.70;;;;;;;;;;4990355;28;20026;-66
2021/06/08 13:24:11;;;;;;;49.15;36.78;;;;;;;;;;5013320;28;20023;-66
2021/06/08 13:26:37;;;;;;;50.85;30.00;;;;;;;;;;5000074;28;20519;-64
2021/06/08 13:29:20;;;;;;;42.42;29.95;;;;;;;;;;4989866;28;20029;-66
2021/06/08 13:31:51;;;;;;;44.50;33.58;;;;;;;;;;5005605;28;20016;-66
2021/06/08 13:34:28;;;;;;;43.40;30.75;;;;;;;;;;5013574;28;20034;-66
2021/06/08 13:37:04;;;;;;;45.67;34.60;;;;;;;;;;4984817;28;20042;-65
2021/06/08 13:39:41;;;;;;;49.45;35.65;;;;;;;;;;4977507;28;20019;-66
2021/06/08 13:42:15;;;;;;;46.28;34.67;;;;;;;;;;4988277;28;20075;-67
2021/06/08 13:45:00;;;;;;;52.08;38.15;;;;;;;;;;4989531;28;20115;-66
2021/06/08 13:47:33;;;;;;;43.70;32.83;;;;;;;;;;4988352;28;20097;-66
2021/06/08 13:49:59;;;;;;;51.65;35.88;;;;;;;;;;4996360;28;20040;-65
2021/06/08 13:52:44;;;;;;;49.85;34.10;;;;;;;;;;4988931;28;20025;-67
2021/06/08 13:55:11;;;;;;;40.08;28.60;;;;;;;;;;5011677;28;20023;-65
2021/06/08 13:57:45;;;;;;;42.42;30.65;;;;;;;;;;4988023;28;20501;-65
2021/06/08 14:00:17;;;;;;;43.38;27.48;;;;;;;;;;4980847;28;20107;-65
2021/06/08 14:02:44;;;;;;;45.22;32.25;;;;;;;;;;4976116;28;20033;-65
2021/06/08 14:05:22;;;;;;;42.10;28.00;;;;;;;;;;4988346;28;20023;-65
2021/06/08 14:07:48;;;;;;;45.85;35.85;;;;;;;;;;4976548;28;20590;-64
2021/06/08 14:10:14;;;;;;;38.40;28.85;;;;;;;;;;4983590;28;20115;-65
2021/06/08 14:13:00;;;;;;;40.10;26.40;;;;;;;;;;4983777;28;20045;-65
2021/06/08 14:15:27;;;;;;;39.33;30.98;;;;;;;;;;4990838;28;20022;-66
2021/06/08 14:17:53;;;;;;;37.17;30.05;;;;;;;;;;4985259;28;20504;-67
2021/06/08 14:20:19;;;;;;;42.05;30.70;;;;;;;;;;4978992;28;20398;-66
2021/06/08 14:22:45;;;;;;;38.30;27.13;;;;;;;;;;4983989;28;20023;-67
2021/06/08 14:25:12;;;;;;;40.95;31.27;;;;;;;;;;5002579;28;20034;-66
2021/06/08 14:27:38;;;;;;;46.05;33.80;;;;;;;;;;4980246;28;20050;-66